Time;durP1;ratioP1;P1;durP2;ratioP2;P2;SDS_P1;SDS_P2;PMS_P1;PMS_P2;Temp;Humidity;BMP_temperature;BMP_pressure;BME280_temperature;BME280_humidity;BME280_pressure;Samples;Min_cycle;Max_cycle;Signal;HPM_P1;HPM_P2
2022/08/13 00:01:56;;;;;;;2.53;1.38;;;17.80;89.20;;;;;;5111388;28;20032;-79
2022/08/13 00:04:26;;;;;;;2.30;1.48;;;17.70;90.60;;;;;;5113360;28;20498;-80
2022/08/13 00:07:08;;;;;;;2.13;1.73;;;17.70;85.30;;;;;;5111294;28;20016;-80
2022/08/13 00:09:37;;;;;;;1.20;1.20;;;17.70;86.80;;;;;;5112554;28;20024;-77
2022/08/13 00:14:47;;;;;;;1.95;1.35;;;17.70;91.00;;;;;;5112286;28;20055;-78
2022/08/13 00:17:14;;;;;;;2.15;1.55;;;17.60;94.00;;;;;;5113076;28;20023;-79
2022/08/13 00:19:42;;;;;;;2.38;1.48;;;;;;;;;;5113791;28;20023;-78
2022/08/13 00:22:10;;;;;;;2.85;0.98;;;17.50;77.00;;;;;;5113124;28;20011;-74
2022/08/13 00:24:38;;;;;;;1.95;1.25;;;17.50;77.80;;;;;;5113429;28;20027;-79
2022/08/13 00:27:04;;;;;;;2.38;1.30;;;17.40;78.00;;;;;;5112679;28;20024;-77
2022/08/13 00:29:30;;;;;;;1.35;1.25;;;17.40;78.30;;;;;;5104316;27;20059;-78
2022/08/13 00:31:55;;;;;;;1.50;1.40;;;17.30;78.60;;;;;;5105671;28;20032;-78
2022/08/13 00:34:22;;;;;;;2.65;1.52;;;17.30;78.80;;;;;;5102909;28;20028;-78
2022/08/13 00:36:48;;;;;;;2.35;1.42;;;17.20;79.00;;;;;;5104195;28;20031;-78
2022/08/13 00:39:14;;;;;;;1.52;1.35;;;17.30;96.80;;;;;;5104197;28;20015;-77
2022/08/13 00:41:46;;;;;;;2.55;1.50;;;17.30;99.50;;;;;;5105241;28;20047;-79
2022/08/13 00:44:14;;;;;;;1.73;1.42;;;17.20;99.10;;;;;;5105268;28;20028;-79
2022/08/13 00:46:41;;;;;;;2.15;1.45;;;17.20;97.60;;;;;;5106234;28;20038;-79
2022/08/13 00:49:09;;;;;;;2.25;1.88;;;17.10;80.30;;;;;;5101756;28;20107;-75
2022/08/13 00:51:36;;;;;;;2.78;1.88;;;17.00;80.70;;;;;;5103662;28;20030;-79
2022/08/13 00:54:08;;;;;;;1.90;1.73;;;17.00;81.00;;;;;;5103339;28;20444;-80
2022/08/13 00:56:35;;;;;;;1.75;1.40;;;17.00;81.60;;;;;;5103787;28;20062;-78
2022/08/13 00:59:12;;;;;;;2.22;1.02;;;17.10;81.40;;;;;;5105926;28;20117;-80
2022/08/13 01:01:40;;;;;;;2.15;1.10;;;17.10;81.30;;;;;;5103848;28;20490;-79
2022/08/13 01:04:07;;;;;;;1.40;1.30;;;17.20;81.10;;;;;;5105954;28;20042;-80
2022/08/13 01:06:35;;;;;;;2.63;1.48;;;17.30;81.00;;;;;;5103785;28;20024;-80
2022/08/13 01:09:02;;;;;;;1.48;1.20;;;17.40;81.00;;;;;;5102593;28;20030;-80
2022/08/13 01:11:32;;;;;;;2.45;1.42;;;17.40;80.80;;;;;;5102684;28;20016;-80
2022/08/13 01:14:00;;;;;;;2.03;1.30;;;17.40;80.80;;;;;;5105361;28;20042;-79
2022/08/13 01:16:28;;;;;;;2.47;1.30;;;17.40;80.80;;;;;;5101284;28;20405;-79
2022/08/13 01:18:54;;;;;;;1.75;1.40;;;17.40;81.20;;;;;;5105840;28;20392;-80
2022/08/13 01:21:23;;;;;;;1.58;1.48;;;17.40;81.40;;;;;;5113204;28;20024;-79
2022/08/13 01:23:52;;;;;;;4.35;1.75;;;17.40;81.80;;;;;;5113628;28;20036;-80
2022/08/13 01:26:20;;;;;;;2.22;1.80;;;17.30;82.20;;;;;;5112402;28;20031;-80
2022/08/13 01:28:47;;;;;;;1.73;1.50;;;17.30;82.60;;;;;;5126431;27;20051;-81
2022/08/13 01:31:15;;;;;;;1.58;1.48;;;17.20;82.90;;;;;;5131623;27;20031;-79
2022/08/13 01:33:45;;;;;;;2.05;1.85;;;17.20;83.30;;;;;;5132818;27;20158;-80
2022/08/13 01:36:14;;;;;;;1.40;1.30;;;;;;;;;;5132433;27;20038;-75
2022/08/13 01:38:41;;;;;;;2.08;1.60;;;;;;;;;;5134054;27;20069;-80
2022/08/13 01:41:11;;;;;;;1.90;1.65;;;;;;;;;;5133697;27;20483;-81
2022/08/13 01:43:44;;;;;;;1.30;1.20;;;;;;;;;;5134061;27;20027;-81
2022/08/13 01:46:13;;;;;;;3.22;1.50;;;;;;;;;;5113664;27;20031;-76
2022/08/13 01:51:35;;;;;;;2.25;1.60;;;;;;;;;;5133080;27;20050;-81
2022/08/13 01:54:04;;;;;;;1.40;1.30;;;;;;;;;;5133726;27;20027;-82
2022/08/13 01:56:31;;;;;;;1.65;1.33;;;;;;;;;;5132503;27;20033;-79
2022/08/13 01:58:59;;;;;;;3.38;1.45;;;;;;;;;;5133248;27;20102;-80
2022/08/13 02:01:26;;;;;;;1.77;1.58;;;;;;;;;;5131141;27;20025;-79
2022/08/13 02:03:56;;;;;;;1.95;1.60;;;;;;;;;;5133309;27;20030;-79
2022/08/13 02:06:26;;;;;;;1.42;1.25;;;;;;;;;;5131526;27;20027;-79
2022/08/13 02:08:58;;;;;;;2.97;1.73;;;;;;;;;;5132824;27;20028;-80
2022/08/13 02:11:24;;;;;;;1.50;1.25;;;;;;;;;;5132545;27;20443;-78
2022/08/13 02:13:52;;;;;;;2.30;1.38;;;;;;;;;;5133330;27;20198;-81
2022/08/13 02:16:18;;;;;;;1.20;1.10;;;;;;;;;;5132518;27;20023;-79
2022/08/13 02:18:44;;;;;;;1.38;1.15;;;16.50;90.00;;;;;;5131801;27;20058;-79
2022/08/13 02:21:11;;;;;;;1.65;1.27;;;16.40;90.50;;;;;;5132123;27;20062;-78
2022/08/13 02:23:37;;;;;;;4.10;1.35;;;16.30;90.80;;;;;;5132513;27;20660;-79
2022/08/13 02:26:05;;;;;;;1.30;1.20;;;16.30;91.10;;;;;;5133450;27;20050;-79
2022/08/13 02:28:39;;;;;;;3.03;1.33;;;16.20;91.50;;;;;;5130373;27;20634;-79
2022/08/13 02:31:05;;;;;;;3.05;1.55;;;16.20;91.70;;;;;;5133277;27;20071;-79
2022/08/13 02:33:37;;;;;;;1.30;1.20;;;16.20;91.90;;;;;;5132273;27;20625;-79
2022/08/13 02:36:10;;;;;;;1.85;1.52;;;16.20;92.10;;;;;;5131099;27;20112;-79
2022/08/13 02:38:37;;;;;;;1.70;1.10;;;16.10;92.30;;;;;;5130778;27;20035;-79
2022/08/13 02:43:48;;;;;;;1.38;1.27;;;16.10;92.60;;;;;;5132962;28;20042;-80
2022/08/13 02:46:16;;;;;;;1.20;1.10;;;16.10;92.80;;;;;;5113539;28;20030;-75
2022/08/13 02:48:42;;;;;;;1.42;1.17;;;16.10;93.00;;;;;;5132946;28;20051;-79
2022/08/13 02:51:11;;;;;;;1.42;1.17;;;16.00;93.10;;;;;;5133045;28;20076;-79
2022/08/13 02:53:41;;;;;;;1.33;1.23;;;16.00;93.50;;;;;;5129890;27;20131;-78
2022/08/13 02:56:08;;;;;;;1.98;1.42;;;15.90;93.70;;;;;;5133149;28;20087;-79
2022/08/13 02:58:34;;;;;;;1.70;1.60;;;15.80;94.30;;;;;;5131915;28;20043;-78
2022/08/13 03:01:02;;;;;;;2.55;1.45;;;15.80;94.50;;;;;;5131709;27;20031;-78
2022/08/13 03:03:31;;;;;;;1.15;1.05;;;15.80;94.60;;;;;;5132115;28;20027;-79
2022/08/13 03:05:57;;;;;;;1.88;1.50;;;15.80;94.80;;;;;;5132941;28;20521;-79
2022/08/13 03:08:23;;;;;;;1.70;1.50;;;15.80;95.00;;;;;;5130004;27;20114;-79
2022/08/13 03:10:49;;;;;;;1.60;1.50;;;15.70;95.10;;;;;;5132929;28;20102;-79
2022/08/13 03:13:29;;;;;;;1.52;1.30;;;15.70;95.40;;;;;;5132639;28;20565;-75
2022/08/13 03:15:56;;;;;;;2.40;2.05;;;15.70;95.50;;;;;;5133101;28;20024;-78
2022/08/13 03:18:23;;;;;;;1.45;1.25;;;15.70;95.60;;;;;;5132178;28;20027;-78
2022/08/13 03:20:49;;;;;;;2.25;1.30;;;15.60;95.80;;;;;;5132738;28;20024;-79
2022/08/13 03:23:17;;;;;;;2.20;1.55;;;15.60;96.10;;;;;;5114256;28;20442;-75
2022/08/13 03:25:42;;;;;;;2.90;2.10;;;15.60;96.30;;;;;;5130434;27;20019;-78
2022/08/13 03:28:08;;;;;;;2.97;1.50;;;15.60;96.70;;;;;;5131559;28;20055;-79
2022/08/13 03:30:35;;;;;;;1.60;1.50;;;15.60;96.60;;;;;;5132052;28;20896;-79
2022/08/13 03:33:09;;;;;;;1.92;1.38;;;15.60;96.80;;;;;;5131757;28;20380;-78
2022/08/13 03:35:37;;;;;;;1.95;1.70;;;15.50;97.00;;;;;;5131596;28;20102;-76
2022/08/13 03:38:05;;;;;;;1.67;1.58;;;15.60;97.30;;;;;;5132658;28;20096;-82
2022/08/13 03:41:00;;;;;;;2.50;2.03;;;15.60;97.30;;;;;;5129623;27;20023;-79
2022/08/13 03:43:16;;;;;;;3.17;1.70;;;15.60;97.30;;;;;;5131624;28;20032;-75
2022/08/13 03:45:44;;;;;;;2.63;1.63;;;15.60;97.40;;;;;;5131810;28;20106;-79
2022/08/13 03:48:12;;;;;;;3.60;1.63;;;15.60;97.50;;;;;;5114190;28;20420;-78
2022/08/13 03:50:40;;;;;;;2.30;1.60;;;15.50;97.60;;;;;;5131812;28;20467;-78
2022/08/13 03:53:06;;;;;;;2.60;1.77;;;15.50;97.90;;;;;;5131773;28;20033;-75
2022/08/13 03:55:33;;;;;;;5.80;1.67;;;15.50;97.90;;;;;;5130360;27;20019;-81
2022/08/13 03:58:00;;;;;;;12.77;2.17;;;15.50;98.00;;;;;;5131806;27;20031;-75
2022/08/13 04:00:28;;;;;;;3.60;2.10;;;15.50;98.10;;;;;;5135561;27;20106;-79
2022/08/13 04:02:55;;;;;;;2.20;2.00;;;15.40;98.20;;;;;;5136623;27;20027;-79
2022/08/13 04:05:22;;;;;;;1.98;1.52;;;15.40;98.40;;;;;;5134837;27;20368;-76
2022/08/13 04:07:50;;;;;;;2.10;1.90;;;15.40;98.50;;;;;;5136141;27;20051;-79
2022/08/13 04:10:17;;;;;;;2.00;1.90;;;15.30;98.70;;;;;;5136056;27;20068;-79
2022/08/13 04:12:43;;;;;;;3.08;2.10;;;15.30;98.80;;;;;;5130200;27;20494;-77
2022/08/13 04:15:09;;;;;;;5.55;1.60;;;15.30;98.90;;;;;;5134669;27;20069;-78
2022/08/13 04:17:36;;;;;;;1.70;1.60;;;15.30;99.10;;;;;;5135354;27;20031;-78
2022/08/13 04:20:04;;;;;;;3.13;1.77;;;15.20;99.20;;;;;;5136101;27;20024;-78
2022/08/13 04:22:30;;;;;;;2.25;1.38;;;15.20;99.30;;;;;;5134991;27;20019;-78
2022/08/13 04:24:55;;;;;;;3.90;1.75;;;15.20;99.40;;;;;;5136158;27;20513;-78
2022/08/13 04:27:21;;;;;;;3.60;1.70;;;15.20;99.50;;;;;;5132635;27;20142;-74
2022/08/13 04:29:48;;;;;;;3.80;1.73;;;15.20;99.60;;;;;;5132922;27;20091;-77
2022/08/13 04:32:13;;;;;;;3.72;1.75;;;15.20;99.70;;;;;;5115177;28;20084;-77
2022/08/13 04:34:39;;;;;;;2.60;1.52;;;15.20;99.80;;;;;;5114161;28;20464;-79
2022/08/13 04:37:07;;;;;;;1.95;1.65;;;15.20;99.80;;;;;;5115249;28;20046;-80
2022/08/13 04:39:33;;;;;;;2.90;1.40;;;15.20;99.80;;;;;;5114013;28;20024;-80
2022/08/13 04:41:59;;;;;;;3.50;1.60;;;15.30;99.80;;;;;;5115056;28;20027;-81
2022/08/13 04:44:25;;;;;;;4.65;1.58;;;15.30;99.80;;;;;;5109106;27;20074;-79
2022/08/13 04:46:51;;;;;;;1.77;1.60;;;15.30;99.70;;;;;;5135360;27;20031;-80
2022/08/13 04:49:16;;;;;;;5.32;1.80;;;15.30;99.70;;;;;;5114267;27;20023;-81
2022/08/13 04:51:42;;;;;;;2.03;1.40;;;15.40;99.70;;;;;;5114373;28;20063;-80
2022/08/13 04:54:07;;;;;;;3.25;1.50;;;15.40;99.60;;;;;;5114627;28;20126;-80
2022/08/13 04:56:33;;;;;;;1.50;1.40;;;15.40;99.60;;;;;;5114215;28;20496;-80
2022/08/13 04:59:00;;;;;;;1.77;1.33;;;15.40;99.60;;;;;;5117804;27;20019;-80
2022/08/13 05:01:26;;;;;;;2.63;1.65;;;15.50;99.60;;;;;;5131720;27;20395;-81
2022/08/13 05:03:52;;;;;;;2.60;1.55;;;15.50;99.60;;;;;;5117806;27;20306;-79
2022/08/13 05:06:21;;;;;;;2.60;1.60;;;15.50;99.60;;;;;;5113083;28;20081;-78
2022/08/13 05:08:48;;;;;;;2.00;1.52;;;15.50;99.60;;;;;;5113464;28;20058;-79
2022/08/13 05:11:15;;;;;;;2.00;1.90;;;15.60;99.60;;;;;;5114701;28;20076;-79
2022/08/13 05:13:43;;;;;;;1.85;1.70;;;15.60;99.50;;;;;;5113474;28;20028;-80
2022/08/13 05:16:12;;;;;;;1.90;1.48;;;15.70;99.50;;;;;;5132796;27;20034;-80
2022/08/13 05:18:42;;;;;;;1.42;1.33;;;15.80;99.40;;;;;;5134495;27;20058;-79
2022/08/13 05:21:08;;;;;;;2.80;1.50;;;15.80;99.20;;;;;;5119237;27;20088;-79
2022/08/13 05:23:37;;;;;;;3.78;1.80;;;15.90;99.10;;;;;;5113936;28;20043;-79
2022/08/13 05:26:03;;;;;;;2.85;1.80;;;16.00;99.00;;;;;;5114771;28;20027;-79
2022/08/13 05:28:30;;;;;;;1.77;1.40;;;16.10;98.90;;;;;;5122047;27;20564;-80
2022/08/13 05:30:56;;;;;;;4.90;2.00;;;16.10;98.70;;;;;;5125093;27;20027;-79
2022/08/13 05:33:24;;;;;;;2.10;1.48;;;16.20;98.40;;;;;;5113770;28;20531;-76
2022/08/13 05:35:53;;;;;;;2.13;1.50;;;16.30;98.20;;;;;;5122311;27;20023;-80
2022/08/13 05:38:23;;;;;;;3.55;1.95;;;16.40;98.20;;;;;;5132571;27;20026;-79
2022/08/13 05:40:59;;;;;;;3.67;2.00;;;16.50;97.80;;;;;;5133544;27;20083;-80
2022/08/13 05:43:27;;;;;;;3.58;1.80;;;16.60;97.20;;;;;;5133877;27;20122;-75
2022/08/13 05:45:57;;;;;;;2.08;1.88;;;16.70;97.00;;;;;;5137741;27;20086;-80
2022/08/13 05:48:27;;;;;;;4.40;1.63;;;16.80;96.90;;;;;;5135581;27;20035;-75
2022/08/13 05:50:54;;;;;;;2.47;1.90;;;16.90;96.70;;;;;;5134716;27;20026;-79
2022/08/13 05:53:21;;;;;;;4.38;2.30;;;16.90;96.40;;;;;;5132876;27;20168;-79
2022/08/13 05:55:47;;;;;;;2.20;1.85;;;17.00;95.90;;;;;;5133800;27;20065;-79
2022/08/13 05:58:13;;;;;;;2.53;1.90;;;17.10;95.50;;;;;;5134289;27;20444;-80
2022/08/13 06:03:31;;;;;;;2.67;1.83;;;17.30;94.70;;;;;;5135497;27;20177;-74
2022/08/13 06:06:08;;;;;;;2.90;1.85;;;17.50;94.30;;;;;;5133476;27;20102;-76
2022/08/13 06:08:40;;;;;;;3.13;2.13;;;17.60;93.50;;;;;;5133722;27;20031;-83
2022/08/13 06:11:11;;;;;;;2.45;1.90;;;17.70;93.10;;;;;;5131820;27;20204;-79
2022/08/13 06:13:38;;;;;;;4.30;1.95;;;17.90;92.20;;;;;;5126392;27;20437;-82
2022/08/13 06:16:08;;;;;;;2.17;1.63;;;18.00;92.00;;;;;;5134802;27;20490;-79
2022/08/13 06:18:35;;;;;;;5.18;1.98;;;18.10;91.80;;;;;;5126786;28;20018;-81
2022/08/13 06:21:04;;;;;;;3.13;1.90;;;18.30;91.20;;;;;;5149631;27;20042;-79
2022/08/13 06:23:31;;;;;;;1.92;1.77;;;18.40;91.00;;;;;;5150765;27;20027;-83
2022/08/13 06:25:58;;;;;;;2.53;1.70;;;18.50;90.80;;;;;;5141317;27;20420;-75
2022/08/13 06:28:28;;;;;;;3.90;1.85;;;18.60;90.50;;;;;;5130551;27;20047;-76
2022/08/13 06:31:14;;;;;;;3.95;2.30;;;18.60;90.70;;;;;;5133277;27;20498;-74
2022/08/13 06:33:40;;;;;;;4.53;1.77;;;18.60;90.60;;;;;;5131198;27;20068;-78
2022/08/13 06:36:09;;;;;;;2.55;1.90;;;18.60;90.70;;;;;;5140186;27;20023;-77
2022/08/13 06:38:48;;;;;;;5.93;2.75;;;18.70;90.80;;;;;;5153245;27;20015;-79
2022/08/13 06:41:15;;;;;;;3.13;2.15;;;18.80;90.90;;;;;;5153750;27;20016;-76
2022/08/13 06:43:43;;;;;;;3.85;2.45;;;18.90;90.80;;;;;;5153463;27;20025;-77
2022/08/13 06:46:11;;;;;;;4.28;2.05;;;19.10;90.30;;;;;;5153649;28;20025;-74
2022/08/13 06:48:39;;;;;;;3.05;1.92;;;19.20;90.30;;;;;;5139552;27;20031;-73
2022/08/13 06:51:07;;;;;;;1.63;1.52;;;19.20;89.70;;;;;;5153362;27;20019;-74
2022/08/13 06:53:35;;;;;;;4.18;1.90;;;19.20;89.90;;;;;;5138557;28;20116;-74
2022/08/13 06:56:06;;;;;;;2.33;1.80;;;19.30;89.20;;;;;;5133052;28;20482;-77
2022/08/13 06:58:34;;;;;;;12.15;2.30;;;19.40;88.40;;;;;;5119129;28;20031;-77
2022/08/13 07:01:00;;;;;;;2.72;1.80;;;19.50;88.00;;;;;;5133094;28;20353;-75
2022/08/13 07:03:28;;;;;;;3.95;2.20;;;19.60;87.80;;;;;;5132662;28;20167;-75
2022/08/13 07:05:56;;;;;;;2.67;1.83;;;19.60;88.00;;;;;;5131507;27;20087;-75
2022/08/13 07:08:24;;;;;;;2.63;2.33;;;19.70;87.30;;;;;;5135134;28;20027;-76
2022/08/13 07:11:21;;;;;;;3.42;1.73;;;19.70;87.80;;;;;;5143049;28;20800;-76
2022/08/13 07:13:43;;;;;;;2.45;2.10;;;19.80;86.60;;;;;;5132504;27;20027;-75
2022/08/13 07:16:10;;;;;;;2.00;1.88;;;19.90;87.60;;;;;;5129792;27;20106;-78
2022/08/13 07:18:37;;;;;;;3.67;1.95;;;20.00;86.00;;;;;;5128974;28;20020;-75
2022/08/13 07:21:09;;;;;;;3.25;1.80;;;20.10;85.30;;;;;;5132195;28;20063;-77
2022/08/13 07:23:36;;;;;;;3.15;1.90;;;20.10;85.60;;;;;;5131578;28;20080;-77
2022/08/13 07:26:02;;;;;;;1.80;1.67;;;20.10;85.80;;;;;;5131537;28;20031;-77
2022/08/13 07:28:29;;;;;;;2.88;1.85;;;20.30;86.50;;;;;;5119521;27;20532;-78
2022/08/13 07:30:56;;;;;;;2.35;1.67;;;20.40;84.70;;;;;;5117700;27;20027;-80
2022/08/13 07:33:22;;;;;;;1.92;1.77;;;20.40;84.40;;;;;;5135657;27;20034;-80
2022/08/13 07:35:48;;;;;;;2.95;2.08;;;20.50;84.30;;;;;;5133450;27;20027;-78
2022/08/13 07:38:16;;;;;;;2.88;1.92;;;20.60;84.70;;;;;;5128129;27;20020;-76
2022/08/13 07:40:48;;;;;;;3.65;1.98;;;20.80;83.70;;;;;;5129074;27;20037;-75
2022/08/13 07:43:22;;;;;;;1.83;1.70;;;20.90;83.50;;;;;;5126529;27;20031;-72
2022/08/13 07:46:10;;;;;;;3.22;1.90;;;21.00;83.10;;;;;;5131437;27;20031;-75
2022/08/13 07:48:37;;;;;;;3.20;2.00;;;21.20;82.50;;;;;;5134095;27;20160;-74
2022/08/13 07:51:05;;;;;;;3.30;1.90;;;21.20;82.00;;;;;;5122042;27;20023;-74
2022/08/13 07:53:35;;;;;;;2.55;1.88;;;21.20;82.30;;;;;;5117150;27;20046;-75
2022/08/13 07:56:06;;;;;;;5.97;1.85;;;21.30;82.10;;;;;;5133813;27;20130;-76
2022/08/13 07:58:34;;;;;;;2.30;1.98;;;21.30;81.70;;;;;;5128801;27;20034;-74
2022/08/13 08:01:00;;;;;;;1.80;1.70;;;21.30;81.40;;;;;;5126707;27;20031;-74
2022/08/13 08:03:45;;;;;;;3.80;1.75;;;21.40;82.20;;;;;;5128331;27;20026;-73
2022/08/13 08:06:14;;;;;;;2.55;1.80;;;21.50;81.30;;;;;;5134533;27;20027;-73
2022/08/13 08:08:42;;;;;;;3.25;1.92;;;21.70;81.30;;;;;;5124024;27;20058;-74
2022/08/13 08:12:35;;;;;;;6.47;1.95;;;21.80;80.40;;;;;;5113924;28;20035;-74
2022/08/13 08:14:01;;;;;;;3.38;1.48;;;21.90;80.60;;;;;;5133159;27;20027;-74
2022/08/13 08:16:31;;;;;;;3.45;2.13;;;22.00;80.30;;;;;;5134413;27;20377;-73
2022/08/13 08:19:00;;;;;;;;;;;22.30;79.30;;;;;;5134132;27;20524;-74
2022/08/13 08:21:26;;;;;;;3.47;1.90;;;22.40;79.10;;;;;;5122551;27;19907;-74
2022/08/13 08:23:57;;;;;;;2.67;1.58;;;22.50;78.50;;;;;;5114049;27;20024;-74
2022/08/13 08:26:29;;;;;;;;;;;22.50;78.60;;;;;;5125767;27;20042;-74
2022/08/13 08:28:57;;;;;;;1.92;1.63;;;22.60;78.20;;;;;;5133285;27;19919;-74
2022/08/13 08:31:24;;;;;;;2.17;1.65;;;22.70;78.00;;;;;;5133186;27;20027;-74
2022/08/13 08:33:51;;;;;;;1.80;1.50;;;22.80;77.40;;;;;;5133991;27;20035;-74
2022/08/13 08:36:17;;;;;;;1.70;1.60;;;22.90;77.20;;;;;;5134657;27;20019;-75
2022/08/13 08:44:32;;;;;;;3.20;1.65;;;23.30;75.50;;;;;;5134023;27;20057;-74
2022/08/13 08:47:02;;;;;;;4.30;1.85;;;23.40;75.30;;;;;;5134318;27;20027;-76
2022/08/13 08:49:30;;;;;;;4.53;1.70;;;23.30;75.50;;;;;;5135557;27;20055;-76
2022/08/13 08:51:57;;;;;;;3.20;1.70;;;23.30;75.80;;;;;;5133613;27;20057;-82
2022/08/13 08:54:25;;;;;;;1.80;1.70;;;23.30;75.70;;;;;;5134290;27;20031;-83
2022/08/13 08:56:55;;;;;;;1.70;1.60;;;23.20;75.60;;;;;;5134118;27;20023;-82
2022/08/13 08:59:26;;;;;;;1.75;1.60;;;23.20;75.10;;;;;;5114120;27;20381;-81
2022/08/13 09:01:52;;;;;;;2.13;1.88;;;23.30;75.60;;;;;;5138967;27;20126;-82
2022/08/13 09:04:20;;;;;;;3.17;1.70;;;23.30;74.90;;;;;;5134649;27;20110;-83
2022/08/13 09:06:52;;;;;;;2.65;1.80;;;23.40;74.90;;;;;;5142314;27;20423;-83
2022/08/13 09:09:19;;;;;;;2.10;1.88;;;23.40;75.00;;;;;;5134708;27;20031;-83
2022/08/13 09:11:49;;;;;;;2.55;1.60;;;23.50;74.90;;;;;;5115541;27;20381;-84
2022/08/13 09:14:15;;;;;;;4.10;1.90;;;23.70;74.10;;;;;;5133074;27;20056;-82
2022/08/13 09:16:42;;;;;;;4.10;2.10;;;23.80;74.20;;;;;;5133434;27;20031;-82
2022/08/13 09:19:09;;;;;;;1.80;1.38;;;23.90;73.40;;;;;;5122603;27;20109;-83
2022/08/13 09:21:45;;;;;;;2.38;1.63;;;24.20;73.20;;;;;;5113341;27;20829;-81
2022/08/13 09:24:14;;;;;;;6.35;1.85;;;24.40;71.90;;;;;;5125796;27;20104;-82
2022/08/13 09:26:47;;;;;;;2.65;1.98;;;24.50;72.10;;;;;;5114192;28;20481;-80
2022/08/13 09:29:15;;;;;;;6.45;1.92;;;24.50;71.80;;;;;;5113744;28;20052;-85
2022/08/13 09:31:45;;;;;;;1.52;1.40;;;24.40;70.80;;;;;;5122461;27;20365;-79
2022/08/13 09:34:12;;;;;;;1.70;1.48;;;24.40;70.50;;;;;;5134236;27;20039;-84
2022/08/13 09:36:39;;;;;;;1.52;1.40;;;24.30;71.20;;;;;;5133382;27;20110;-78
2022/08/13 09:39:06;;;;;;;1.95;1.75;;;24.40;71.20;;;;;;5134338;27;20152;-83
2022/08/13 09:41:51;;;;;;;4.13;1.67;;;24.70;70.40;;;;;;5134267;27;20035;-91
2022/08/13 09:44:17;;;;;;;2.55;1.83;;;25.10;70.00;;;;;;5133897;27;20456;-78
2022/08/13 09:46:43;;;;;;;2.17;1.90;;;25.30;68.70;;;;;;5129914;27;20041;-78
2022/08/13 09:49:11;;;;;;;1.67;1.58;;;25.40;67.40;;;;;;5133652;27;20523;-78
2022/08/13 09:51:37;;;;;;;2.88;1.40;;;25.50;67.80;;;;;;5133064;27;20035;-70
2022/08/13 09:54:09;;;;;;;1.77;1.67;;;25.70;66.40;;;;;;5132434;27;20031;-73
2022/08/13 09:56:38;;;;;;;5.45;1.45;;;25.80;66.00;;;;;;5131129;27;20106;-78
2022/08/13 09:59:10;;;;;;;3.25;1.65;;;25.90;66.70;;;;;;5133443;27;20440;-80
2022/08/13 10:01:36;;;;;;;5.22;1.38;;;26.00;65.70;;;;;;5131898;27;20476;-77
2022/08/13 10:04:04;;;;;;;4.47;1.50;;;26.10;65.00;;;;;;5130754;27;20047;-77
2022/08/13 10:06:32;;;;;;;2.03;1.38;;;26.20;66.10;;;;;;5133842;27;20037;-81
2022/08/13 10:09:00;;;;;;;2.85;1.42;;;26.20;64.60;;;;;;5114810;27;20019;-82
2022/08/13 10:11:27;;;;;;;1.85;1.48;;;26.10;64.50;;;;;;5133452;27;20016;-80
2022/08/13 10:13:53;;;;;;;4.97;2.03;;;26.10;64.40;;;;;;5138186;27;20043;-79
2022/08/13 10:16:19;;;;;;;3.42;1.40;;;26.30;65.00;;;;;;5132785;27;20027;-80
2022/08/13 10:18:46;;;;;;;2.45;1.58;;;26.40;64.70;;;;;;5131143;27;20050;-80
2022/08/13 10:21:12;;;;;;;2.55;1.40;;;26.50;63.90;;;;;;5131863;27;20027;-81
2022/08/13 10:23:38;;;;;;;2.38;1.38;;;26.40;63.40;;;;;;5133172;27;20030;-81
2022/08/13 10:26:03;;;;;;;1.42;1.30;;;26.40;63.80;;;;;;5133148;27;20023;-86
2022/08/13 10:28:33;;;;;;;2.85;1.55;;;26.20;63.40;;;;;;5130571;27;20126;-86
2022/08/13 10:31:00;;;;;;;1.52;1.42;;;26.20;63.60;;;;;;5132669;27;20029;-87
2022/08/13 10:33:27;;;;;;;4.28;1.50;;;26.30;64.10;;;;;;5133135;27;20122;-85
2022/08/13 10:35:53;;;;;;;3.83;1.38;;;26.20;62.90;;;;;;5130726;27;20015;-86
2022/08/13 10:38:26;;;;;;;2.72;1.35;;;26.20;62.10;;;;;;5115503;27;20031;-86
2022/08/13 10:40:53;;;;;;;1.50;1.40;;;26.20;61.70;;;;;;5126876;27;20400;-85
2022/08/13 10:43:19;;;;;;;5.18;1.40;;;26.20;61.50;;;;;;5128540;27;20023;-86
2022/08/13 10:45:46;;;;;;;1.52;1.40;;;26.00;62.20;;;;;;5132522;27;20058;-85
2022/08/13 10:48:13;;;;;;;1.42;1.33;;;25.90;62.20;;;;;;5133636;28;20372;-85
2022/08/13 10:50:40;;;;;;;2.00;1.40;;;25.90;61.90;;;;;;5130110;27;20472;-82
2022/08/13 10:53:06;;;;;;;4.40;1.67;;;25.90;61.90;;;;;;5130328;27;20102;-88
2022/08/13 10:55:33;;;;;;;1.63;1.27;;;25.90;61.70;;;;;;5133053;28;20384;-87
2022/08/13 10:57:59;;;;;;;3.55;1.98;;;26.10;62.00;;;;;;5132407;28;20031;-85
2022/08/13 11:00:25;;;;;;;2.65;1.40;;;26.50;61.30;;;;;;5114658;28;20027;-86
2022/08/13 11:02:51;;;;;;;1.77;1.42;;;26.90;60.80;;;;;;5132188;28;20162;-83
2022/08/13 11:05:24;;;;;;;4.53;1.38;;;26.90;59.90;;;;;;5131518;27;20582;-87
2022/08/13 11:07:49;;;;;;;1.88;1.33;;;27.10;60.60;;;;;;5133039;27;20027;-86
2022/08/13 11:10:15;;;;;;;1.77;1.50;;;27.40;60.00;;;;;;5137408;27;20030;-85
2022/08/13 11:12:50;;;;;;;5.82;1.58;;;27.50;59.50;;;;;;5136919;27;20031;-81
2022/08/13 11:15:21;;;;;;;2.58;1.52;;;27.70;60.60;;;;;;5137418;27;20035;-83
2022/08/13 11:17:51;;;;;;;1.48;1.38;;;27.90;58.20;;;;;;5136272;27;20019;-84
2022/08/13 11:20:19;;;;;;;1.90;1.35;;;28.10;58.40;;;;;;5137343;27;20023;-82
2022/08/13 11:22:49;;;;;;;1.75;1.35;;;28.20;57.30;;;;;;5135587;27;20027;-83
2022/08/13 11:25:15;;;;;;;2.40;1.70;;;28.30;57.90;;;;;;5135461;27;20038;-83
2022/08/13 11:27:41;;;;;;;1.60;1.50;;;28.50;56.60;;;;;;5136432;27;20035;-81
2022/08/13 11:30:08;;;;;;;4.45;1.65;;;28.70;56.80;;;;;;5108552;28;20035;-82
2022/08/13 11:32:34;;;;;;;1.52;1.42;;;28.70;56.00;;;;;;5115935;28;20055;-82
2022/08/13 11:34:59;;;;;;;3.13;1.45;;;28.50;56.00;;;;;;5115500;28;20091;-84
2022/08/13 11:37:25;;;;;;;1.40;1.30;;;28.40;56.00;;;;;;5115283;28;20453;-79
2022/08/13 11:39:50;;;;;;;5.13;1.27;;;28.30;55.80;;;;;;5097026;28;20035;-83
2022/08/13 11:42:16;;;;;;;4.82;1.65;;;28.40;56.50;;;;;;5115862;28;20024;-79
2022/08/13 11:44:42;;;;;;;1.40;1.30;;;28.60;56.10;;;;;;5114035;28;20084;-79
2022/08/13 11:47:07;;;;;;;1.77;1.45;;;28.80;55.40;;;;;;5115516;28;20019;-79
2022/08/13 11:49:33;;;;;;;1.88;1.63;;;28.90;55.50;;;;;;5115908;28;20024;-79
2022/08/13 11:51:59;;;;;;;2.30;1.73;;;29.00;55.50;;;;;;5114941;28;20156;-84
2022/08/13 11:54:25;;;;;;;5.60;1.60;;;28.80;54.80;;;;;;5115106;28;20063;-80
2022/08/13 11:56:50;;;;;;;1.25;1.23;;;28.80;54.70;;;;;;5114430;28;20031;-82
2022/08/13 11:59:16;;;;;;;3.17;1.30;;;28.80;54.40;;;;;;5113917;28;20019;-81
2022/08/13 12:01:41;;;;;;;3.58;1.20;;;28.80;54.20;;;;;;5113706;27;20020;-79
2022/08/13 12:04:07;;;;;;;1.58;1.27;;;29.00;54.70;;;;;;5114387;28;20047;-84
2022/08/13 12:06:34;;;;;;;1.15;1.02;;;29.20;55.00;;;;;;5115583;28;20026;-83
2022/08/13 12:09:00;;;;;;;3.78;1.70;;;29.50;53.60;;;;;;5113995;28;20601;-84
2022/08/13 12:11:26;;;;;;;2.42;1.30;;;29.60;53.60;;;;;;5115980;28;20027;-83
2022/08/13 12:13:52;;;;;;;1.60;1.50;;;29.80;53.30;;;;;;5114751;28;20384;-82
2022/08/13 12:16:18;;;;;;;1.30;1.20;;;30.00;53.10;;;;;;5113767;28;20023;-83
2022/08/13 12:18:43;;;;;;;9.25;1.60;;;30.20;52.70;;;;;;5113784;28;20123;-79
2022/08/13 12:21:09;;;;;;;2.85;1.42;;;30.30;52.50;;;;;;5115528;28;20048;-83
2022/08/13 12:23:34;;;;;;;2.67;1.20;;;30.30;52.30;;;;;;5115003;28;20068;-80
2022/08/13 12:26:00;;;;;;;3.08;1.30;;;30.00;53.20;;;;;;5112661;28;20606;-78
2022/08/13 12:28:27;;;;;;;1.55;1.27;;;30.10;52.60;;;;;;5120404;27;20043;-76
2022/08/13 12:30:54;;;;;;;2.90;1.35;;;30.20;52.00;;;;;;5131975;27;20190;-74
2022/08/13 12:33:21;;;;;;;5.95;1.50;;;30.50;52.30;;;;;;5133081;27;20031;-73
2022/08/13 12:35:46;;;;;;;3.88;1.52;;;30.80;51.70;;;;;;5134027;27;20452;-76
2022/08/13 12:38:14;;;;;;;2.90;1.70;;;30.80;50.90;;;;;;5135454;27;20111;-75
2022/08/13 12:40:42;;;;;;;4.88;1.67;;;30.60;50.70;;;;;;5134876;27;20452;-72
2022/08/13 12:43:08;;;;;;;3.53;1.40;;;30.60;50.90;;;;;;5134393;27;20083;-73
2022/08/13 12:45:36;;;;;;;2.05;1.30;;;30.60;50.30;;;;;;5135119;27;20027;-74
2022/08/13 12:48:10;;;;;;;3.53;1.50;;;30.60;50.30;;;;;;5134214;27;20098;-87
2022/08/13 12:50:38;;;;;;;1.58;1.48;;;30.70;50.60;;;;;;5133666;27;20451;-86
2022/08/13 12:53:05;;;;;;;3.33;1.50;;;30.80;50.90;;;;;;5134004;27;20578;-80
2022/08/13 12:55:32;;;;;;;1.40;1.30;;;30.80;50.40;;;;;;5117167;27;20033;-81
2022/08/13 12:57:58;;;;;;;1.52;1.35;;;30.70;50.60;;;;;;5133530;27;20035;-81
2022/08/13 13:00:25;;;;;;;2.65;1.38;;;30.70;50.50;;;;;;5135381;27;20027;-86
2022/08/13 13:02:50;;;;;;;1.65;1.10;;;30.70;49.90;;;;;;5115913;27;20047;-86
2022/08/13 13:05:16;;;;;;;1.67;1.48;;;30.40;50.00;;;;;;5127773;27;20067;-83
2022/08/13 13:07:44;;;;;;;2.30;1.33;;;30.10;50.40;;;;;;5134217;27;20028;-82
2022/08/13 13:10:10;;;;;;;5.65;1.63;;;29.90;49.90;;;;;;5134457;27;20035;-82
2022/08/13 13:12:36;;;;;;;2.55;1.25;;;29.90;50.00;;;;;;5133582;27;20101;-84
2022/08/13 13:15:02;;;;;;;1.42;1.25;;;29.90;50.00;;;;;;5133579;27;20053;-83